sensor_id;sensor_type;location;lat;lon;timestamp;temperature;humidity
12225;DHT22;6175;50.956;11.064;2022-08-21T00:01:22;17.20;99.90
12225;DHT22;6175;50.956;11.064;2022-08-21T00:11:13;17.10;99.90
12225;DHT22;6175;50.956;11.064;2022-08-21T00:13:40;17.10;99.90
12225;DHT22;6175;50.956;11.064;2022-08-21T00:16:07;17.00;99.90
12225;DHT22;6175;50.956;11.064;2022-08-21T00:21:03;16.90;99.90
12225;DHT22;6175;50.956;11.064;2022-08-21T00:23:30;16.90;99.90
12225;DHT22;6175;50.956;11.064;2022-08-21T00:25:57;16.90;99.90
12225;DHT22;6175;50.956;11.064;2022-08-21T00:30:51;16.80;99.90
12225;DHT22;6175;50.956;11.064;2022-08-21T00:33:17;16.90;99.90
12225;DHT22;6175;50.956;11.064;2022-08-21T00:35:44;16.80;99.90
12225;DHT22;6175;50.956;11.064;2022-08-21T00:38:12;16.80;99.90
12225;DHT22;6175;50.956;11.064;2022-08-21T00:40:43;16.80;99.90
12225;DHT22;6175;50.956;11.064;2022-08-21T00:43:11;16.70;99.90
12225;DHT22;6175;50.956;11.064;2022-08-21T00:45:40;16.70;99.90
12225;DHT22;6175;50.956;11.064;2022-08-21T00:48:07;16.70;99.90
12225;DHT22;6175;50.956;11.064;2022-08-21T00:50:38;16.60;99.90
12225;DHT22;6175;50.956;11.064;2022-08-21T00:53:07;16.60;99.90
12225;DHT22;6175;50.956;11.064;2022-08-21T00:55:36;16.50;99.90
12225;DHT22;6175;50.956;11.064;2022-08-21T00:58:05;16.50;99.90
12225;DHT22;6175;50.956;11.064;2022-08-21T01:00:35;16.50;99.90
12225;DHT22;6175;50.956;11.064;2022-08-21T01:03:07;16.50;99.90
12225;DHT22;6175;50.956;11.064;2022-08-21T01:08:02;16.50;99.90
12225;DHT22;6175;50.956;11.064;2022-08-21T01:10:29;16.40;99.90
12225;DHT22;6175;50.956;11.064;2022-08-21T01:12:58;16.40;99.90
12225;DHT22;6175;50.956;11.064;2022-08-21T01:15:29;16.40;99.90
12225;DHT22;6175;50.956;11.064;2022-08-21T01:20:26;16.40;99.90
12225;DHT22;6175;50.956;11.064;2022-08-21T01:22:54;16.40;99.90
12225;DHT22;6175;50.956;11.064;2022-08-21T01:30:18;16.40;99.90
12225;DHT22;6175;50.956;11.064;2022-08-21T01:32:46;16.40;99.90
12225;DHT22;6175;50.956;11.064;2022-08-21T01:35:16;16.40;99.90
12225;DHT22;6175;50.956;11.064;2022-08-21T01:37:43;16.40;99.90
12225;DHT22;6175;50.956;11.064;2022-08-21T01:40:13;16.40;99.90
12225;DHT22;6175;50.956;11.064;2022-08-21T01:42:42;16.40;99.90
12225;DHT22;6175;50.956;11.064;2022-08-21T01:45:10;16.40;99.90
12225;DHT22;6175;50.956;11.064;2022-08-21T01:50:05;16.30;99.90
12225;DHT22;6175;50.956;11.064;2022-08-21T01:52:32;16.30;99.90
12225;DHT22;6175;50.956;11.064;2022-08-21T01:54:59;16.30;99.90
12225;DHT22;6175;50.956;11.064;2022-08-21T01:57:27;16.30;99.90
12225;DHT22;6175;50.956;11.064;2022-08-21T01:59:53;16.30;99.90
12225;DHT22;6175;50.956;11.064;2022-08-21T02:02:20;16.30;99.90
12225;DHT22;6175;50.956;11.064;2022-08-21T02:09:42;16.20;99.90
12225;DHT22;6175;50.956;11.064;2022-08-21T02:12:08;16.20;99.90
12225;DHT22;6175;50.956;11.064;2022-08-21T02:17:05;16.10;99.90
12225;DHT22;6175;50.956;11.064;2022-08-21T02:19:32;16.10;99.90
12225;DHT22;6175;50.956;11.064;2022-08-21T02:26:53;16.20;99.90
12225;DHT22;6175;50.956;11.064;2022-08-21T02:31:48;16.20;99.90
12225;DHT22;6175;50.956;11.064;2022-08-21T02:34:14;16.20;99.90
12225;DHT22;6175;50.956;11.064;2022-08-21T02:36:41;16.00;99.90
12225;DHT22;6175;50.956;11.064;2022-08-21T02:39:08;16.20;99.90
12225;DHT22;6175;50.956;11.064;2022-08-21T02:44:02;16.20;99.90
12225;DHT22;6175;50.956;11.064;2022-08-21T02:46:29;16.20;99.90
12225;DHT22;6175;50.956;11.064;2022-08-21T02:48:58;16.20;99.90
12225;DHT22;6175;50.956;11.064;2022-08-21T02:51:25;16.20;99.90
12225;DHT22;6175;50.956;11.064;2022-08-21T02:53:52;16.10;99.90
12225;DHT22;6175;50.956;11.064;2022-08-21T02:56:20;16.10;99.90
12225;DHT22;6175;50.956;11.064;2022-08-21T02:58:50;16.10;99.90
12225;DHT22;6175;50.956;11.064;2022-08-21T03:03:46;16.10;99.90
12225;DHT22;6175;50.956;11.064;2022-08-21T03:06:18;16.10;99.90
12225;DHT22;6175;50.956;11.064;2022-08-21T03:11:13;16.00;99.90
12225;DHT22;6175;50.956;11.064;2022-08-21T03:13:40;16.00;99.90
12225;DHT22;6175;50.956;11.064;2022-08-21T03:16:08;16.00;99.90
12225;DHT22;6175;50.956;11.064;2022-08-21T03:21:02;15.90;99.90
12225;DHT22;6175;50.956;11.064;2022-08-21T03:28:25;15.80;99.90
12225;DHT22;6175;50.956;11.064;2022-08-21T03:33:20;15.80;99.90
12225;DHT22;6175;50.956;11.064;2022-08-21T03:35:54;15.80;99.90
12225;DHT22;6175;50.956;11.064;2022-08-21T03:40:51;15.70;99.90
12225;DHT22;6175;50.956;11.064;2022-08-21T03:43:18;15.70;99.90
12225;DHT22;6175;50.956;11.064;2022-08-21T03:45:45;15.60;99.90
12225;DHT22;6175;50.956;11.064;2022-08-21T03:50:42;15.60;99.90
12225;DHT22;6175;50.956;11.064;2022-08-21T03:53:10;15.60;99.90
12225;DHT22;6175;50.956;11.064;2022-08-21T03:58:06;15.60;99.90
12225;DHT22;6175;50.956;11.064;2022-08-21T04:00:33;15.40;99.90
12225;DHT22;6175;50.956;11.064;2022-08-21T04:05:27;15.60;99.90
12225;DHT22;6175;50.956;11.064;2022-08-21T04:10:24;15.70;99.90
12225;DHT22;6175;50.956;11.064;2022-08-21T04:12:51;15.80;99.90
12225;DHT22;6175;50.956;11.064;2022-08-21T04:15:20;15.80;99.90
12225;DHT22;6175;50.956;11.064;2022-08-21T04:20:15;16.00;99.90
12225;DHT22;6175;50.956;11.064;2022-08-21T04:25:11;16.10;99.90
12225;DHT22;6175;50.956;11.064;2022-08-21T04:27:39;16.10;99.90
12225;DHT22;6175;50.956;11.064;2022-08-21T04:30:07;16.20;99.90
12225;DHT22;6175;50.956;11.064;2022-08-21T04:32:36;16.30;99.90
12225;DHT22;6175;50.956;11.064;2022-08-21T04:35:06;16.30;99.90
12225;DHT22;6175;50.956;11.064;2022-08-21T04:37:34;16.40;99.90
12225;DHT22;6175;50.956;11.064;2022-08-21T04:40:01;16.40;99.90
12225;DHT22;6175;50.956;11.064;2022-08-21T04:42:28;16.50;99.90
12225;DHT22;6175;50.956;11.064;2022-08-21T04:44:55;16.40;99.90
12225;DHT22;6175;50.956;11.064;2022-08-21T04:47:23;16.60;99.90
12225;DHT22;6175;50.956;11.064;2022-08-21T04:49:52;16.60;99.90
12225;DHT22;6175;50.956;11.064;2022-08-21T04:52:21;16.60;99.90
12225;DHT22;6175;50.956;11.064;2022-08-21T04:54:50;16.70;99.90
12225;DHT22;6175;50.956;11.064;2022-08-21T04:57:17;16.70;99.90
12225;DHT22;6175;50.956;11.064;2022-08-21T04:59:48;16.70;99.90
12225;DHT22;6175;50.956;11.064;2022-08-21T05:02:16;16.70;99.90
12225;DHT22;6175;50.956;11.064;2022-08-21T05:04:45;16.80;99.90
12225;DHT22;6175;50.956;11.064;2022-08-21T05:07:19;16.80;99.90
12225;DHT22;6175;50.956;11.064;2022-08-21T05:09:46;16.80;99.90
12225;DHT22;6175;50.956;11.064;2022-08-21T05:17:08;16.90;99.90
12225;DHT22;6175;50.956;11.064;2022-08-21T05:22:03;17.00;99.90
12225;DHT22;6175;50.956;11.064;2022-08-21T05:24:31;17.10;99.90
12225;DHT22;6175;50.956;11.064;2022-08-21T05:29:26;17.20;99.90
12225;DHT22;6175;50.956;11.064;2022-08-21T05:31:53;17.30;99.90
12225;DHT22;6175;50.956;11.064;2022-08-21T05:34:22;17.30;99.90
12225;DHT22;6175;50.956;11.064;2022-08-21T05:51:34;17.60;99.90
12225;DHT22;6175;50.956;11.064;2022-08-21T05:54:01;17.60;99.90
12225;DHT22;6175;50.956;11.064;2022-08-21T05:58:56;17.60;99.90
12225;DHT22;6175;50.956;11.064;2022-08-21T06:08:44;18.00;99.90
12225;DHT22;6175;50.956;11.064;2022-08-21T06:16:10;18.30;99.90
12225;DHT22;6175;50.956;11.064;2022-08-21T06:18:38;18.30;99.90
12225;DHT22;6175;50.956;11.064;2022-08-21T06:23:34;18.30;99.90
12225;DHT22;6175;50.956;11.064;2022-08-21T06:33:24;18.20;99.90
12225;DHT22;6175;50.956;11.064;2022-08-21T06:38:18;18.40;99.90
12225;DHT22;6175;50.956;11.064;2022-08-21T06:43:14;18.60;99.90
12225;DHT22;6175;50.956;11.064;2022-08-21T06:45:41;18.60;99.90
12225;DHT22;6175;50.956;11.064;2022-08-21T06:48:08;18.80;99.90
12225;DHT22;6175;50.956;11.064;2022-08-21T06:50:37;18.90;99.90
12225;DHT22;6175;50.956;11.064;2022-08-21T06:53:07;18.90;99.90
12225;DHT22;6175;50.956;11.064;2022-08-21T06:55:35;19.00;99.90
12225;DHT22;6175;50.956;11.064;2022-08-21T06:58:04;19.10;99.90
12225;DHT22;6175;50.956;11.064;2022-08-21T07:02:59;19.20;99.90
12225;DHT22;6175;50.956;11.064;2022-08-21T07:05:26;19.30;99.90
12225;DHT22;6175;50.956;11.064;2022-08-21T07:07:54;19.40;99.90
12225;DHT22;6175;50.956;11.064;2022-08-21T07:12:49;19.50;99.90
12225;DHT22;6175;50.956;11.064;2022-08-21T07:15:16;19.60;99.90
12225;DHT22;6175;50.956;11.064;2022-08-21T07:17:43;19.60;99.90
12225;DHT22;6175;50.956;11.064;2022-08-21T07:20:10;19.60;99.90
12225;DHT22;6175;50.956;11.064;2022-08-21T07:22:38;19.60;99.90
12225;DHT22;6175;50.956;11.064;2022-08-21T07:25:07;19.60;99.90
12225;DHT22;6175;50.956;11.064;2022-08-21T07:27:34;19.60;99.90
12225;DHT22;6175;50.956;11.064;2022-08-21T07:32:28;19.80;99.90
12225;DHT22;6175;50.956;11.064;2022-08-21T07:37:22;20.00;99.90
12225;DHT22;6175;50.956;11.064;2022-08-21T07:39:49;20.20;99.90
12225;DHT22;6175;50.956;11.064;2022-08-21T07:42:18;20.30;99.90
12225;DHT22;6175;50.956;11.064;2022-08-21T07:47:11;20.50;99.90
12225;DHT22;6175;50.956;11.064;2022-08-21T07:49:38;20.40;99.90
12225;DHT22;6175;50.956;11.064;2022-08-21T07:52:05;20.50;99.90
12225;DHT22;6175;50.956;11.064;2022-08-21T07:54:32;20.60;99.90
12225;DHT22;6175;50.956;11.064;2022-08-21T07:56:58;20.70;99.90
12225;DHT22;6175;50.956;11.064;2022-08-21T07:59:27;20.80;99.90
12225;DHT22;6175;50.956;11.064;2022-08-21T08:09:15;21.40;99.90
12225;DHT22;6175;50.956;11.064;2022-08-21T08:11:42;21.60;99.90
12225;DHT22;6175;50.956;11.064;2022-08-21T08:14:09;21.70;99.90
12225;DHT22;6175;50.956;11.064;2022-08-21T08:16:38;21.80;99.90
12225;DHT22;6175;50.956;11.064;2022-08-21T08:19:04;22.00;99.90
12225;DHT22;6175;50.956;11.064;2022-08-21T08:21:31;22.00;99.90
12225;DHT22;6175;50.956;11.064;2022-08-21T08:23:59;22.30;99.90
12225;DHT22;6175;50.956;11.064;2022-08-21T08:26:26;22.20;99.90
12225;DHT22;6175;50.956;11.064;2022-08-21T08:28:53;22.10;99.90
12225;DHT22;6175;50.956;11.064;2022-08-21T08:31:19;22.00;99.90
12225;DHT22;6175;50.956;11.064;2022-08-21T08:33:48;21.90;99.90
12225;DHT22;6175;50.956;11.064;2022-08-21T08:36:16;22.00;99.90
12225;DHT22;6175;50.956;11.064;2022-08-21T08:38:45;22.00;99.90
12225;DHT22;6175;50.956;11.064;2022-08-21T08:41:16;22.00;99.90
12225;DHT22;6175;50.956;11.064;2022-08-21T08:43:50;21.90;99.90
12225;DHT22;6175;50.956;11.064;2022-08-21T08:46:22;22.00;99.90
12225;DHT22;6175;50.956;11.064;2022-08-21T08:48:57;21.90;99.90
12225;DHT22;6175;50.956;11.064;2022-08-21T08:51:40;22.00;99.90
12225;DHT22;6175;50.956;11.064;2022-08-21T08:54:12;22.20;99.90
12225;DHT22;6175;50.956;11.064;2022-08-21T08:59:15;22.10;99.90
12225;DHT22;6175;50.956;11.064;2022-08-21T09:04:11;21.90;99.90
12225;DHT22;6175;50.956;11.064;2022-08-21T09:06:53;21.90;99.90
12225;DHT22;6175;50.956;11.064;2022-08-21T09:09:34;21.90;99.90
12225;DHT22;6175;50.956;11.064;2022-08-21T09:12:09;21.90;99.90
12225;DHT22;6175;50.956;11.064;2022-08-21T09:14:48;22.00;99.90
12225;DHT22;6175;50.956;11.064;2022-08-21T09:17:29;22.00;99.90
12225;DHT22;6175;50.956;11.064;2022-08-21T09:20:09;22.00;99.90
12225;DHT22;6175;50.956;11.064;2022-08-21T09:22:58;22.30;99.90
12225;DHT22;6175;50.956;11.064;2022-08-21T09:25:33;22.60;99.90
12225;DHT22;6175;50.956;11.064;2022-08-21T09:28:03;23.20;99.90
12225;DHT22;6175;50.956;11.064;2022-08-21T09:30:33;23.50;99.90
12225;DHT22;6175;50.956;11.064;2022-08-21T09:33:00;23.80;99.90
12225;DHT22;6175;50.956;11.064;2022-08-21T09:35:28;24.10;99.90
12225;DHT22;6175;50.956;11.064;2022-08-21T09:37:59;24.30;99.90
12225;DHT22;6175;50.956;11.064;2022-08-21T09:40:33;24.30;99.90
12225;DHT22;6175;50.956;11.064;2022-08-21T09:43:02;24.10;99.90
12225;DHT22;6175;50.956;11.064;2022-08-21T09:45:30;24.00;99.90
12225;DHT22;6175;50.956;11.064;2022-08-21T09:48:08;23.80;99.90
12225;DHT22;6175;50.956;11.064;2022-08-21T09:50:36;23.70;99.90
12225;DHT22;6175;50.956;11.064;2022-08-21T09:53:05;23.60;99.90
12225;DHT22;6175;50.956;11.064;2022-08-21T09:55:38;23.50;99.90
12225;DHT22;6175;50.956;11.064;2022-08-21T09:58:31;23.30;99.90
12225;DHT22;6175;50.956;11.064;2022-08-21T10:01:00;23.20;99.90
12225;DHT22;6175;50.956;11.064;2022-08-21T10:03:28;23.40;99.90
12225;DHT22;6175;50.956;11.064;2022-08-21T10:05:58;23.70;99.90
12225;DHT22;6175;50.956;11.064;2022-08-21T10:08:27;24.00;99.90
12225;DHT22;6175;50.956;11.064;2022-08-21T10:10:56;24.20;99.90
12225;DHT22;6175;50.956;11.064;2022-08-21T10:13:37;24.40;99.90
12225;DHT22;6175;50.956;11.064;2022-08-21T10:16:15;24.50;99.90
12225;DHT22;6175;50.956;11.064;2022-08-21T10:18:54;24.80;99.50
12225;DHT22;6175;50.956;11.064;2022-08-21T10:21:28;25.10;99.20
12225;DHT22;6175;50.956;11.064;2022-08-21T10:24:03;25.40;97.70
12225;DHT22;6175;50.956;11.064;2022-08-21T10:26:39;25.60;97.70
12225;DHT22;6175;50.956;11.064;2022-08-21T10:29:17;25.50;97.50
12225;DHT22;6175;50.956;11.064;2022-08-21T10:31:52;25.50;97.40
12225;DHT22;6175;50.956;11.064;2022-08-21T10:34:29;25.50;97.40
12225;DHT22;6175;50.956;11.064;2022-08-21T10:37:13;25.50;97.00
12225;DHT22;6175;50.956;11.064;2022-08-21T10:39:49;25.60;96.20
12225;DHT22;6175;50.956;11.064;2022-08-21T10:42:28;25.60;96.40
12225;DHT22;6175;50.956;11.064;2022-08-21T10:45:14;25.20;96.60
12225;DHT22;6175;50.956;11.064;2022-08-21T10:47:46;24.90;96.20
12225;DHT22;6175;50.956;11.064;2022-08-21T10:50:25;24.90;96.10
12225;DHT22;6175;50.956;11.064;2022-08-21T10:53:22;24.80;94.50
12225;DHT22;6175;50.956;11.064;2022-08-21T10:55:55;24.60;95.00
12225;DHT22;6175;50.956;11.064;2022-08-21T10:58:28;24.60;95.10
12225;DHT22;6175;50.956;11.064;2022-08-21T11:01:00;24.40;96.00
12225;DHT22;6175;50.956;11.064;2022-08-21T11:03:34;24.30;95.90
12225;DHT22;6175;50.956;11.064;2022-08-21T11:06:06;24.10;96.20
12225;DHT22;6175;50.956;11.064;2022-08-21T11:08:39;23.80;97.00
12225;DHT22;6175;50.956;11.064;2022-08-21T11:11:10;23.50;97.00
12225;DHT22;6175;50.956;11.064;2022-08-21T11:13:41;23.50;97.40
12225;DHT22;6175;50.956;11.064;2022-08-21T11:16:15;23.40;97.20
12225;DHT22;6175;50.956;11.064;2022-08-21T11:18:47;23.50;96.90
12225;DHT22;6175;50.956;11.064;2022-08-21T11:21:27;23.40;96.30
12225;DHT22;6175;50.956;11.064;2022-08-21T11:24:02;23.30;96.90
12225;DHT22;6175;50.956;11.064;2022-08-21T11:26:34;23.40;96.80
12225;DHT22;6175;50.956;11.064;2022-08-21T11:29:07;23.60;96.40
12225;DHT22;6175;50.956;11.064;2022-08-21T11:31:49;24.10;96.10
12225;DHT22;6175;50.956;11.064;2022-08-21T11:34:28;24.60;95.70
12225;DHT22;6175;50.956;11.064;2022-08-21T11:37:06;25.00;94.70
12225;DHT22;6175;50.956;11.064;2022-08-21T11:39:50;25.50;93.60
12225;DHT22;6175;50.956;11.064;2022-08-21T11:42:24;25.80;92.00
12225;DHT22;6175;50.956;11.064;2022-08-21T11:45:03;25.80;91.00
12225;DHT22;6175;50.956;11.064;2022-08-21T11:47:48;26.10;87.80
12225;DHT22;6175;50.956;11.064;2022-08-21T11:50:20;26.30;87.00
12225;DHT22;6175;50.956;11.064;2022-08-21T11:52:50;26.30;85.80
12225;DHT22;6175;50.956;11.064;2022-08-21T11:55:25;26.50;84.70
12225;DHT22;6175;50.956;11.064;2022-08-21T11:57:57;26.50;84.00
12225;DHT22;6175;50.956;11.064;2022-08-21T12:00:28;26.60;84.00
12225;DHT22;6175;50.956;11.064;2022-08-21T12:02:58;26.90;82.80
12225;DHT22;6175;50.956;11.064;2022-08-21T12:05:30;27.20;80.70
12225;DHT22;6175;50.956;11.064;2022-08-21T12:08:06;27.40;80.00
12225;DHT22;6175;50.956;11.064;2022-08-21T12:10:37;27.30;77.60
12225;DHT22;6175;50.956;11.064;2022-08-21T12:13:11;26.80;78.70
12225;DHT22;6175;50.956;11.064;2022-08-21T12:15:39;26.40;80.00
12225;DHT22;6175;50.956;11.064;2022-08-21T12:18:20;26.30;78.80
12225;DHT22;6175;50.956;11.064;2022-08-21T12:21:00;26.50;80.80
12225;DHT22;6175;50.956;11.064;2022-08-21T12:23:30;26.90;79.10
12225;DHT22;6175;50.956;11.064;2022-08-21T12:28:46;27.30;73.20
12225;DHT22;6175;50.956;11.064;2022-08-21T12:31:31;27.10;72.70
12225;DHT22;6175;50.956;11.064;2022-08-21T12:34:02;26.70;74.80
12225;DHT22;6175;50.956;11.064;2022-08-21T12:36:41;26.70;75.30
12225;DHT22;6175;50.956;11.064;2022-08-21T12:39:13;26.80;76.60
12225;DHT22;6175;50.956;11.064;2022-08-21T12:41:47;26.80;75.30
12225;DHT22;6175;50.956;11.064;2022-08-21T12:44:21;26.90;73.60
12225;DHT22;6175;50.956;11.064;2022-08-21T12:46:55;27.00;73.20
12225;DHT22;6175;50.956;11.064;2022-08-21T12:49:28;27.40;73.20
12225;DHT22;6175;50.956;11.064;2022-08-21T12:52:02;27.70;73.20
12225;DHT22;6175;50.956;11.064;2022-08-21T12:54:32;28.20;71.60
12225;DHT22;6175;50.956;11.064;2022-08-21T12:57:07;28.40;69.10
12225;DHT22;6175;50.956;11.064;2022-08-21T12:59:38;28.40;69.10
12225;DHT22;6175;50.956;11.064;2022-08-21T13:02:15;28.30;66.90
12225;DHT22;6175;50.956;11.064;2022-08-21T13:04:44;28.30;66.90
12225;DHT22;6175;50.956;11.064;2022-08-21T13:07:14;28.10;67.10
12225;DHT22;6175;50.956;11.064;2022-08-21T13:09:46;28.00;68.00
12225;DHT22;6175;50.956;11.064;2022-08-21T13:12:16;27.70;69.70
12225;DHT22;6175;50.956;11.064;2022-08-21T13:14:45;27.70;70.20
12225;DHT22;6175;50.956;11.064;2022-08-21T13:17:14;28.00;69.50
12225;DHT22;6175;50.956;11.064;2022-08-21T13:22:14;28.20;67.20
12225;DHT22;6175;50.956;11.064;2022-08-21T13:27:30;28.00;68.10
12225;DHT22;6175;50.956;11.064;2022-08-21T13:30:06;27.50;68.40
12225;DHT22;6175;50.956;11.064;2022-08-21T13:32:35;27.10;69.30
12225;DHT22;6175;50.956;11.064;2022-08-21T13:35:16;26.70;69.80
12225;DHT22;6175;50.956;11.064;2022-08-21T13:37:45;26.50;70.70
12225;DHT22;6175;50.956;11.064;2022-08-21T13:40:16;26.50;71.30
12225;DHT22;6175;50.956;11.064;2022-08-21T13:42:46;26.60;70.50
12225;DHT22;6175;50.956;11.064;2022-08-21T13:45:18;26.60;70.60
12225;DHT22;6175;50.956;11.064;2022-08-21T13:47:47;26.60;70.00
12225;DHT22;6175;50.956;11.064;2022-08-21T13:50:16;26.50;71.90
12225;DHT22;6175;50.956;11.064;2022-08-21T13:52:48;26.40;70.70
12225;DHT22;6175;50.956;11.064;2022-08-21T13:55:17;26.60;70.50
12225;DHT22;6175;50.956;11.064;2022-08-21T13:57:45;27.10;68.80
12225;DHT22;6175;50.956;11.064;2022-08-21T14:00:16;27.60;68.20
12225;DHT22;6175;50.956;11.064;2022-08-21T14:02:46;27.90;66.50
12225;DHT22;6175;50.956;11.064;2022-08-21T14:05:19;28.30;65.90
12225;DHT22;6175;50.956;11.064;2022-08-21T14:07:47;28.50;63.30
12225;DHT22;6175;50.956;11.064;2022-08-21T14:10:20;28.20;63.30
12225;DHT22;6175;50.956;11.064;2022-08-21T14:12:51;27.90;63.90
12225;DHT22;6175;50.956;11.064;2022-08-21T14:15:24;27.60;64.50
12225;DHT22;6175;50.956;11.064;2022-08-21T14:17:52;27.30;64.80
12225;DHT22;6175;50.956;11.064;2022-08-21T14:20:27;27.20;64.90
12225;DHT22;6175;50.956;11.064;2022-08-21T14:22:55;27.50;65.60
12225;DHT22;6175;50.956;11.064;2022-08-21T14:25:30;28.30;64.00
12225;DHT22;6175;50.956;11.064;2022-08-21T14:28:13;28.90;61.40
12225;DHT22;6175;50.956;11.064;2022-08-21T14:30:42;29.40;59.90
12225;DHT22;6175;50.956;11.064;2022-08-21T14:33:11;29.30;60.00
12225;DHT22;6175;50.956;11.064;2022-08-21T14:38:12;28.60;60.60
12225;DHT22;6175;50.956;11.064;2022-08-21T14:45:36;28.70;61.30
12225;DHT22;6175;50.956;11.064;2022-08-21T14:48:06;29.30;59.60
12225;DHT22;6175;50.956;11.064;2022-08-21T14:50:33;30.00;58.40
12225;DHT22;6175;50.956;11.064;2022-08-21T14:53:01;30.60;57.10
12225;DHT22;6175;50.956;11.064;2022-08-21T14:55:30;31.10;56.00
12225;DHT22;6175;50.956;11.064;2022-08-21T14:58:19;31.80;54.20
12225;DHT22;6175;50.956;11.064;2022-08-21T15:00:48;32.10;53.20
12225;DHT22;6175;50.956;11.064;2022-08-21T15:03:15;32.90;52.00
12225;DHT22;6175;50.956;11.064;2022-08-21T15:05:42;33.70;50.20
12225;DHT22;6175;50.956;11.064;2022-08-21T15:10:36;34.00;47.00
12225;DHT22;6175;50.956;11.064;2022-08-21T15:15:32;34.30;46.40
12225;DHT22;6175;50.956;11.064;2022-08-21T15:22:53;36.10;42.60
12225;DHT22;6175;50.956;11.064;2022-08-21T15:25:20;36.70;41.90
12225;DHT22;6175;50.956;11.064;2022-08-21T15:30:14;37.60;39.10
12225;DHT22;6175;50.956;11.064;2022-08-21T15:32:42;37.90;38.80
12225;DHT22;6175;50.956;11.064;2022-08-21T15:35:09;38.10;37.90
12225;DHT22;6175;50.956;11.064;2022-08-21T15:37:36;38.40;36.20
12225;DHT22;6175;50.956;11.064;2022-08-21T15:42:32;37.00;34.80
12225;DHT22;6175;50.956;11.064;2022-08-21T15:47:29;34.70;37.00
12225;DHT22;6175;50.956;11.064;2022-08-21T15:49:58;34.60;37.50
12225;DHT22;6175;50.956;11.064;2022-08-21T15:54:53;35.80;35.90
12225;DHT22;6175;50.956;11.064;2022-08-21T15:57:21;36.30;35.60
12225;DHT22;6175;50.956;11.064;2022-08-21T15:59:51;36.80;34.90
12225;DHT22;6175;50.956;11.064;2022-08-21T16:02:26;37.10;34.40
12225;DHT22;6175;50.956;11.064;2022-08-21T16:04:53;36.50;35.20
12225;DHT22;6175;50.956;11.064;2022-08-21T16:07:21;36.60;35.80
12225;DHT22;6175;50.956;11.064;2022-08-21T16:12:19;36.50;34.90
12225;DHT22;6175;50.956;11.064;2022-08-21T16:17:15;36.00;35.10
12225;DHT22;6175;50.956;11.064;2022-08-21T16:22:09;35.40;36.30
12225;DHT22;6175;50.956;11.064;2022-08-21T16:24:37;35.40;36.00
12225;DHT22;6175;50.956;11.064;2022-08-21T16:29:34;35.80;35.40
12225;DHT22;6175;50.956;11.064;2022-08-21T16:34:29;35.90;35.10
12225;DHT22;6175;50.956;11.064;2022-08-21T16:36:56;34.80;35.60
12225;DHT22;6175;50.956;11.064;2022-08-21T16:39:23;33.10;38.20
12225;DHT22;6175;50.956;11.064;2022-08-21T16:41:51;31.60;40.70
12225;DHT22;6175;50.956;11.064;2022-08-21T16:44:18;30.50;42.10
12225;DHT22;6175;50.956;11.064;2022-08-21T16:46:47;29.70;43.40
12225;DHT22;6175;50.956;11.064;2022-08-21T16:49:14;29.10;45.40
12225;DHT22;6175;50.956;11.064;2022-08-21T16:54:08;27.90;47.00
12225;DHT22;6175;50.956;11.064;2022-08-21T16:56:35;27.50;48.50
12225;DHT22;6175;50.956;11.064;2022-08-21T16:59:04;27.10;48.00
12225;DHT22;6175;50.956;11.064;2022-08-21T17:01:32;26.80;48.40
12225;DHT22;6175;50.956;11.064;2022-08-21T17:03:59;26.50;49.90
12225;DHT22;6175;50.956;11.064;2022-08-21T17:11:26;25.90;51.60
12225;DHT22;6175;50.956;11.064;2022-08-21T17:13:55;25.90;51.50
12225;DHT22;6175;50.956;11.064;2022-08-21T17:16:24;25.80;51.80
12225;DHT22;6175;50.956;11.064;2022-08-21T17:18:51;25.70;51.30
12225;DHT22;6175;50.956;11.064;2022-08-21T17:21:18;25.60;51.60
12225;DHT22;6175;50.956;11.064;2022-08-21T17:23:45;25.50;51.90
12225;DHT22;6175;50.956;11.064;2022-08-21T17:26:12;25.50;52.10
12225;DHT22;6175;50.956;11.064;2022-08-21T17:28:40;25.50;52.10
12225;DHT22;6175;50.956;11.064;2022-08-21T17:31:08;25.40;52.60
12225;DHT22;6175;50.956;11.064;2022-08-21T17:33:41;25.30;52.70
12225;DHT22;6175;50.956;11.064;2022-08-21T17:36:11;25.20;52.80
12225;DHT22;6175;50.956;11.064;2022-08-21T17:41:05;25.10;55.40
12225;DHT22;6175;50.956;11.064;2022-08-21T17:46:00;24.90;57.70
12225;DHT22;6175;50.956;11.064;2022-08-21T17:48:27;24.80;58.50
12225;DHT22;6175;50.956;11.064;2022-08-21T17:50:55;24.70;59.10
12225;DHT22;6175;50.956;11.064;2022-08-21T17:53:22;24.70;59.70
12225;DHT22;6175;50.956;11.064;2022-08-21T18:00:46;24.40;61.50
12225;DHT22;6175;50.956;11.064;2022-08-21T18:03:15;24.40;61.90
12225;DHT22;6175;50.956;11.064;2022-08-21T18:05:46;24.30;62.60
12225;DHT22;6175;50.956;11.064;2022-08-21T18:10:44;24.10;64.20
12225;DHT22;6175;50.956;11.064;2022-08-21T18:13:14;24.00;64.40
12225;DHT22;6175;50.956;11.064;2022-08-21T18:15:43;23.90;65.60
12225;DHT22;6175;50.956;11.064;2022-08-21T18:18:11;23.80;66.80
12225;DHT22;6175;50.956;11.064;2022-08-21T18:25:35;23.50;69.10
12225;DHT22;6175;50.956;11.064;2022-08-21T18:28:05;23.40;70.20
12225;DHT22;6175;50.956;11.064;2022-08-21T18:30:36;23.30;70.90
12225;DHT22;6175;50.956;11.064;2022-08-21T18:47:51;22.40;79.40
12225;DHT22;6175;50.956;11.064;2022-08-21T18:50:20;22.30;80.40
12225;DHT22;6175;50.956;11.064;2022-08-21T18:52:48;22.10;80.80
12225;DHT22;6175;50.956;11.064;2022-08-21T18:55:18;22.00;81.10
12225;DHT22;6175;50.956;11.064;2022-08-21T19:00:17;22.00;83.10
12225;DHT22;6175;50.956;11.064;2022-08-21T19:02:44;21.90;83.60
12225;DHT22;6175;50.956;11.064;2022-08-21T19:05:14;21.80;84.50
12225;DHT22;6175;50.956;11.064;2022-08-21T19:10:11;21.60;86.40
12225;DHT22;6175;50.956;11.064;2022-08-21T19:12:39;21.50;87.50
12225;DHT22;6175;50.956;11.064;2022-08-21T19:15:11;21.40;88.80
12225;DHT22;6175;50.956;11.064;2022-08-21T19:17:41;21.40;90.00
12225;DHT22;6175;50.956;11.064;2022-08-21T19:20:13;21.30;90.30
12225;DHT22;6175;50.956;11.064;2022-08-21T19:27:36;21.10;91.60
12225;DHT22;6175;50.956;11.064;2022-08-21T19:30:05;21.00;91.90
12225;DHT22;6175;50.956;11.064;2022-08-21T19:32:33;20.90;92.40
12225;DHT22;6175;50.956;11.064;2022-08-21T19:35:05;20.70;92.80
12225;DHT22;6175;50.956;11.064;2022-08-21T19:42:27;20.50;94.30
12225;DHT22;6175;50.956;11.064;2022-08-21T19:44:54;20.50;94.70
12225;DHT22;6175;50.956;11.064;2022-08-21T19:49:53;20.30;95.40
12225;DHT22;6175;50.956;11.064;2022-08-21T19:52:23;20.20;96.00
12225;DHT22;6175;50.956;11.064;2022-08-21T19:57:17;20.20;96.70
12225;DHT22;6175;50.956;11.064;2022-08-21T19:59:44;20.10;97.00
12225;DHT22;6175;50.956;11.064;2022-08-21T20:02:13;20.00;97.40
12225;DHT22;6175;50.956;11.064;2022-08-21T20:09:38;19.80;98.60
12225;DHT22;6175;50.956;11.064;2022-08-21T20:12:07;19.60;98.90